Ashfield, Pennsylvania
Current Conditions -  °F | °C
As of 1:51 AM on Thursday 23 Oct 2014 (Local Time) from KABE Reporting Station
Overcast Overcast  
Wind Chill: 52°   Ceiling: 4400
Heat Index: 52°   Visibility: 10mi
Dew Point: 44°   Wind: 13mph
Humidity: 74%   Direction: 350°N
Pressure: 29.8"   Gusts: 22mph
Location:  40.78°N, 75.71°W
Report Text: KABE 230551Z 35011G19KT 10SM OVC044 11/07 A2980 RMK AO2 RAE05 SLP090 P0000 60005 T01110067 10122 20106 58012
Loading
Personal Weather Stations






























Interactive Weather Map
Tropical Storm Tracking
New forecast layout! Learn more

10-Day Weather Forecast

Advertisements
Track Severe Weather on mobile